Time;durP1;ratioP1;P1;durP2;ratioP2;P2;SDS_P1;SDS_P2;PMS_P1;PMS_P2;Temp;Humidity;BMP_temperature;BMP_pressure;BME280_temperature;BME280_humidity;BME280_pressure;Samples;Min_cycle;Max_cycle;Signal;HPM_P1;HPM_P2
2022/07/16 00:02:29;;;;;;;21.13;12.67;;;18.90;76.00;;;;;;5115350;28;20473;-66
2022/07/16 00:04:57;;;;;;;14.43;10.67;;;18.90;74.80;;;;;;5114942;28;20445;-67
2022/07/16 00:07:24;;;;;;;12.57;10.50;;;18.90;74.60;;;;;;5115056;28;20477;-66
2022/07/16 00:09:51;;;;;;;13.30;9.17;;;18.90;75.30;;;;;;5114979;28;20799;-66
2022/07/16 00:12:18;;;;;;;18.93;12.90;;;18.90;75.10;;;;;;5115182;28;20492;-66
2022/07/16 00:14:45;;;;;;;13.60;8.30;;;18.90;73.90;;;;;;5114603;28;20438;-66
2022/07/16 00:17:13;;;;;;;11.53;9.10;;;18.90;74.40;;;;;;5115568;28;20519;-66
2022/07/16 00:19:39;;;;;;;14.27;10.90;;;18.90;74.10;;;;;;5114273;28;20442;-66
2022/07/16 00:22:07;;;;;;;12.60;10.33;;;18.80;72.50;;;;;;5113910;28;20434;-66
2022/07/16 00:24:35;;;;;;;10.57;9.00;;;18.90;72.70;;;;;;5114487;28;20495;-66
2022/07/16 00:27:02;;;;;;;10.07;8.30;;;18.80;70.40;;;;;;5114871;28;20442;-66
2022/07/16 00:29:30;;;;;;;9.00;7.43;;;18.90;70.40;;;;;;5114570;28;20502;-66
2022/07/16 00:31:57;;;;;;;8.50;6.73;;;18.90;70.70;;;;;;5114694;28;20944;-66
2022/07/16 00:34:24;;;;;;;11.90;5.70;;;18.90;71.70;;;;;;5114478;28;20480;-66
2022/07/16 00:36:52;;;;;;;10.40;6.60;;;18.80;71.80;;;;;;5114886;28;20501;-66
2022/07/16 00:39:20;;;;;;;6.70;5.00;;;18.80;71.50;;;;;;5114423;28;20920;-66
2022/07/16 00:41:49;;;;;;;8.80;5.07;;;18.90;70.80;;;;;;5114683;28;20474;-66
2022/07/16 00:44:18;;;;;;;8.33;4.57;;;18.90;70.50;;;;;;5114165;28;20437;-66
2022/07/16 00:46:47;;;;;;;10.90;5.50;;;18.90;69.90;;;;;;5114771;28;20485;-66
2022/07/16 00:49:15;;;;;;;7.63;5.03;;;18.90;70.00;;;;;;5113767;28;20477;-66
2022/07/16 00:51:45;;;;;;;7.10;5.50;;;18.80;71.00;;;;;;5114405;28;20444;-66
2022/07/16 00:54:13;;;;;;;7.40;6.50;;;18.80;70.90;;;;;;5114030;28;20466;-66
2022/07/16 00:56:42;;;;;;;8.50;5.67;;;18.80;71.10;;;;;;5114175;28;20944;-66
2022/07/16 00:59:10;;;;;;;7.77;4.63;;;18.70;70.50;;;;;;5113931;28;20435;-66
2022/07/16 01:01:37;;;;;;;6.17;5.00;;;18.70;70.00;;;;;;5114347;28;20550;-66
2022/07/16 01:04:04;;;;;;;8.30;5.30;;;18.70;69.70;;;;;;5113924;28;20462;-66
2022/07/16 01:06:32;;;;;;;9.47;4.70;;;18.70;69.90;;;;;;5114082;28;20839;-66
2022/07/16 01:09:00;;;;;;;5.73;4.00;;;18.60;70.30;;;;;;5113909;28;20485;-66
2022/07/16 01:11:27;;;;;;;6.10;3.93;;;18.60;69.90;;;;;;5113633;28;20430;-68
2022/07/16 01:13:56;;;;;;;5.20;3.03;;;18.60;69.90;;;;;;5113766;28;20434;-66
2022/07/16 01:16:23;;;;;;;6.13;3.97;;;18.70;69.70;;;;;;5093796;28;20563;-66
2022/07/16 01:18:50;;;;;;;6.50;4.43;;;18.60;69.60;;;;;;5094681;28;20443;-66
2022/07/16 01:21:17;;;;;;;6.77;4.53;;;18.70;69.30;;;;;;5113807;28;20930;-66
2022/07/16 01:23:49;;;;;;;8.90;4.93;;;18.60;69.60;;;;;;5114107;28;21296;-66
2022/07/16 01:26:16;;;;;;;4.43;4.03;;;18.60;70.20;;;;;;5093462;28;20517;-66
2022/07/16 01:28:43;;;;;;;13.57;4.70;;;18.50;70.60;;;;;;5093382;28;20482;-68
2022/07/16 01:31:12;;;;;;;7.33;4.10;;;18.50;70.80;;;;;;5112885;28;20502;-66
2022/07/16 01:33:41;;;;;;;5.33;4.27;;;18.40;71.00;;;;;;5113392;28;20434;-66
2022/07/16 01:36:11;;;;;;;9.67;4.33;;;18.40;71.40;;;;;;5113465;28;20447;-66
2022/07/16 01:38:39;;;;;;;7.30;3.70;;;18.40;72.00;;;;;;5113792;28;20784;-66
2022/07/16 01:41:08;;;;;;;8.70;4.93;;;18.30;73.00;;;;;;5113130;28;20442;-66
2022/07/16 01:43:35;;;;;;;8.10;4.40;;;18.20;73.90;;;;;;5113343;28;20466;-66
2022/07/16 01:46:03;;;;;;;6.80;4.67;;;18.10;74.70;;;;;;5112650;28;20435;-66
2022/07/16 01:48:31;;;;;;;7.47;3.87;;;18.00;75.20;;;;;;5113219;28;20485;-66
2022/07/16 01:50:59;;;;;;;8.63;4.23;;;18.00;75.20;;;;;;5112432;28;20442;-66
2022/07/16 01:53:28;;;;;;;8.33;4.50;;;17.90;75.20;;;;;;5113248;28;20488;-66
2022/07/16 01:55:55;;;;;;;7.00;4.37;;;17.90;75.30;;;;;;5112914;28;20438;-66
2022/07/16 01:58:24;;;;;;;5.07;4.57;;;17.90;75.20;;;;;;5113185;28;20951;-68
2022/07/16 02:00:51;;;;;;;6.20;5.37;;;17.80;75.30;;;;;;5112887;28;21012;-67
2022/07/16 02:03:18;;;;;;;7.00;4.70;;;17.70;75.40;;;;;;5112847;28;20470;-66
2022/07/16 02:05:46;;;;;;;8.90;4.10;;;17.60;75.40;;;;;;5112699;28;20977;-66
2022/07/16 02:08:14;;;;;;;7.17;5.23;;;17.60;75.60;;;;;;5112255;28;20550;-66
2022/07/16 02:10:42;;;;;;;7.40;5.20;;;17.50;75.60;;;;;;5112733;28;20435;-66
2022/07/16 02:13:09;;;;;;;8.07;4.70;;;17.40;75.90;;;;;;5112397;28;20440;-66
2022/07/16 02:15:38;;;;;;;8.20;4.93;;;17.40;76.40;;;;;;5112930;28;20465;-66
2022/07/16 02:18:05;;;;;;;11.47;5.17;;;17.30;76.40;;;;;;5112331;28;20507;-66
2022/07/16 02:20:32;;;;;;;9.40;7.40;;;17.30;76.40;;;;;;5112876;28;20484;-66
2022/07/16 02:22:59;;;;;;;9.00;7.93;;;17.30;76.30;;;;;;5112412;28;20431;-66
2022/07/16 02:25:26;;;;;;;8.20;7.07;;;17.10;76.30;;;;;;5112595;28;20454;-66
2022/07/16 02:30:37;;;;;;;12.83;8.40;;;17.00;75.70;;;;;;5108437;28;20475;-66
2022/07/16 02:33:05;;;;;;;9.80;5.80;;;17.00;74.90;;;;;;5113086;28;20433;-65
2022/07/16 02:35:33;;;;;;;7.67;6.20;;;17.00;74.90;;;;;;5112383;28;20462;-66
2022/07/16 02:38:00;;;;;;;9.23;5.70;;;17.00;74.90;;;;;;5112322;28;20499;-66
2022/07/16 02:40:28;;;;;;;6.80;5.07;;;17.00;74.10;;;;;;5112247;28;20925;-66
2022/07/16 02:42:55;;;;;;;10.60;6.67;;;17.00;73.40;;;;;;5112563;28;20471;-67
2022/07/16 02:45:23;;;;;;;6.30;5.20;;;17.00;73.60;;;;;;5114746;28;20461;-66
2022/07/16 02:47:51;;;;;;;7.07;5.60;;;16.90;73.50;;;;;;5116928;28;20600;-66
2022/07/16 02:50:19;;;;;;;8.57;5.30;;;16.90;73.40;;;;;;5116635;28;20438;-66
2022/07/16 02:52:47;;;;;;;8.50;6.40;;;16.90;73.20;;;;;;5117047;28;20465;-66
2022/07/16 02:55:14;;;;;;;7.90;5.27;;;16.80;73.30;;;;;;5116173;28;20438;-66
2022/07/16 02:57:41;;;;;;;8.13;5.57;;;16.90;73.30;;;;;;5116721;28;20868;-66
2022/07/16 03:00:12;;;;;;;9.43;6.10;;;16.90;73.40;;;;;;5116357;28;20461;-66
2022/07/16 03:02:39;;;;;;;9.07;6.07;;;16.80;73.50;;;;;;5116233;28;20465;-66
2022/07/16 03:05:09;;;;;;;11.30;6.70;;;16.80;73.70;;;;;;5116209;28;20521;-66
2022/07/16 03:07:36;;;;;;;9.53;6.60;;;16.70;73.90;;;;;;5116568;28;20438;-65
2022/07/16 03:10:05;;;;;;;8.03;6.30;;;16.60;74.00;;;;;;5116072;28;20505;-66
2022/07/16 03:12:32;;;;;;;8.93;5.90;;;16.60;73.60;;;;;;5116410;28;20433;-66
2022/07/16 03:14:59;;;;;;;6.90;4.90;;;16.60;73.10;;;;;;5115747;28;20899;-66
2022/07/16 03:17:26;;;;;;;9.87;7.00;;;16.60;72.90;;;;;;5116360;28;20487;-66
2022/07/16 03:19:53;;;;;;;10.17;6.57;;;16.60;72.40;;;;;;5115778;28;20438;-66
2022/07/16 03:22:21;;;;;;;19.07;9.93;;;16.50;72.30;;;;;;5116233;28;20943;-66
2022/07/16 03:24:49;;;;;;;22.07;12.27;;;16.50;72.30;;;;;;5116302;28;20802;-66
2022/07/16 03:27:16;;;;;;;11.60;8.13;;;16.40;72.80;;;;;;5116098;28;20472;-65
2022/07/16 03:29:43;;;;;;;11.83;7.10;;;16.40;72.80;;;;;;5115464;28;20509;-72
2022/07/16 03:32:10;;;;;;;11.37;6.40;;;16.40;73.10;;;;;;5115821;28;20442;-65
2022/07/16 03:34:37;;;;;;;8.30;6.93;;;16.40;73.10;;;;;;5115852;28;20514;-68
2022/07/16 03:37:04;;;;;;;14.43;7.73;;;16.30;73.30;;;;;;5116019;28;20433;-68
2022/07/16 03:39:33;;;;;;;13.67;9.30;;;16.20;73.90;;;;;;5115227;28;20430;-66
2022/07/16 03:42:00;;;;;;;18.33;12.43;;;16.20;74.30;;;;;;5115909;28;20446;-66
2022/07/16 03:44:27;;;;;;;15.67;10.30;;;16.20;74.70;;;;;;5115753;28;20430;-66
2022/07/16 03:46:54;;;;;;;14.20;8.03;;;16.20;74.90;;;;;;5115838;28;20438;-66
2022/07/16 03:49:21;;;;;;;10.63;6.83;;;16.20;74.50;;;;;;5115040;28;20486;-66
2022/07/16 03:51:48;;;;;;;10.20;7.03;;;16.10;74.80;;;;;;5115837;28;20434;-66
2022/07/16 03:54:15;;;;;;;14.40;7.67;;;16.10;74.50;;;;;;5115174;28;20457;-66
2022/07/16 03:56:44;;;;;;;7.57;5.37;;;16.10;74.60;;;;;;5115380;28;20491;-65
2022/07/16 03:59:11;;;;;;;8.57;5.87;;;16.10;75.30;;;;;;5115132;28;20430;-66
2022/07/16 04:01:38;;;;;;;11.30;6.67;;;16.20;75.90;;;;;;5115661;28;20477;-66
2022/07/16 04:04:06;;;;;;;7.47;5.23;;;16.20;75.80;;;;;;5115635;28;20967;-66
2022/07/16 04:06:33;;;;;;;11.73;5.97;;;16.20;75.90;;;;;;5115254;28;20434;-65
2022/07/16 04:09:00;;;;;;;8.43;5.50;;;16.30;76.20;;;;;;5115495;28;20493;-68
2022/07/16 04:11:27;;;;;;;7.87;5.70;;;16.30;76.50;;;;;;5115055;28;20467;-68
2022/07/16 04:13:56;;;;;;;8.13;5.73;;;16.40;76.50;;;;;;5115645;28;20434;-66
2022/07/16 04:16:23;;;;;;;6.63;5.50;;;16.40;76.50;;;;;;5114977;28;20434;-66
2022/07/16 04:18:50;;;;;;;8.93;6.30;;;16.30;76.70;;;;;;5115573;28;20430;-66
2022/07/16 04:21:17;;;;;;;8.73;6.00;;;16.30;76.80;;;;;;5114691;28;20989;-66
2022/07/16 04:23:44;;;;;;;9.70;6.70;;;16.30;76.70;;;;;;5115284;28;20430;-66
2022/07/16 04:26:11;;;;;;;18.20;13.10;;;16.30;77.30;;;;;;5114604;28;20503;-65
2022/07/16 04:28:38;;;;;;;14.77;9.47;;;16.40;77.70;;;;;;5115154;28;20477;-66
2022/07/16 04:31:07;;;;;;;12.83;8.03;;;16.50;77.50;;;;;;5114608;28;21020;-66
2022/07/16 04:33:34;;;;;;;8.93;7.03;;;16.50;77.30;;;;;;5115060;28;20947;-66
2022/07/16 04:36:02;;;;;;;8.17;5.83;;;16.60;76.80;;;;;;5114868;28;20789;-66
2022/07/16 04:38:29;;;;;;;7.93;5.80;;;16.60;76.20;;;;;;5115257;28;20449;-67
2022/07/16 04:40:57;;;;;;;9.60;5.83;;;16.60;76.50;;;;;;5114336;28;20814;-66
2022/07/16 04:43:24;;;;;;;6.23;4.83;;;16.70;76.70;;;;;;5114587;28;20434;-66
2022/07/16 04:45:51;;;;;;;10.73;6.40;;;16.70;76.80;;;;;;5114964;28;20535;-66
2022/07/16 04:48:20;;;;;;;10.53;6.40;;;16.80;76.90;;;;;;5114380;28;20426;-66
2022/07/16 04:50:47;;;;;;;6.77;6.07;;;16.80;77.10;;;;;;5115021;28;20788;-66
2022/07/16 04:53:14;;;;;;;10.03;5.77;;;16.80;77.20;;;;;;5114157;28;20430;-66
2022/07/16 04:55:42;;;;;;;8.40;5.77;;;16.90;77.60;;;;;;5114422;28;20427;-66
2022/07/16 04:58:09;;;;;;;9.50;5.90;;;17.00;78.30;;;;;;5113864;28;20438;-66
2022/07/16 05:00:36;;;;;;;10.90;6.87;;;17.10;78.60;;;;;;5114479;28;20430;-66
2022/07/16 05:03:06;;;;;;;7.40;5.23;;;17.20;78.50;;;;;;5113517;28;20466;-66
2022/07/16 05:05:37;;;;;;;8.30;6.50;;;17.30;78.30;;;;;;5113818;28;20827;-66
2022/07/16 05:08:07;;;;;;;7.10;5.60;;;17.30;78.40;;;;;;5113230;28;20438;-66
2022/07/16 05:10:34;;;;;;;6.97;5.77;;;17.40;77.80;;;;;;5113892;28;20477;-66
2022/07/16 05:13:02;;;;;;;9.80;5.60;;;17.50;77.80;;;;;;5113810;28;20529;-66
2022/07/16 05:15:30;;;;;;;8.60;5.20;;;17.60;76.80;;;;;;5113264;28;20430;-66
2022/07/16 05:17:57;;;;;;;9.07;5.83;;;17.60;75.80;;;;;;5113830;28;20430;-66
2022/07/16 05:20:25;;;;;;;8.73;6.20;;;17.60;76.70;;;;;;5109599;28;20432;-66
2022/07/16 05:22:54;;;;;;;11.03;5.80;;;17.70;76.40;;;;;;5110800;28;20449;-66
2022/07/16 05:25:21;;;;;;;7.23;5.63;;;17.80;75.80;;;;;;5112321;28;20441;-68
2022/07/16 05:27:49;;;;;;;9.30;5.90;;;17.80;75.00;;;;;;5112363;28;20487;-66
2022/07/16 05:30:16;;;;;;;9.50;5.40;;;17.90;74.10;;;;;;5112074;28;20535;-67
2022/07/16 05:32:45;;;;;;;7.20;4.83;;;18.00;74.30;;;;;;5112486;28;20583;-66
2022/07/16 05:35:14;;;;;;;9.93;4.67;;;18.10;74.50;;;;;;5111663;28;20445;-66
2022/07/16 05:37:42;;;;;;;5.60;4.60;;;18.20;74.70;;;;;;5112053;28;21139;-66
2022/07/16 05:40:14;;;;;;;5.83;5.00;;;18.20;74.30;;;;;;5111276;28;20917;-67
2022/07/16 05:42:42;;;;;;;6.63;4.27;;;18.40;74.00;;;;;;5111952;28;21210;-68
2022/07/16 05:45:10;;;;;;;10.63;5.47;;;18.50;72.50;;;;;;5111554;28;20438;-66
2022/07/16 05:47:38;;;;;;;4.80;4.30;;;18.50;72.50;;;;;;5111763;28;20449;-66
2022/07/16 05:50:07;;;;;;;5.57;4.60;;;18.60;70.50;;;;;;5111407;28;20569;-66
2022/07/16 05:52:34;;;;;;;7.03;4.93;;;18.70;70.40;;;;;;5111170;28;20438;-66
2022/07/16 05:55:02;;;;;;;10.30;4.30;;;18.80;70.10;;;;;;5111046;28;20453;-66
2022/07/16 05:57:31;;;;;;;4.50;3.90;;;18.90;69.10;;;;;;5109877;28;20940;-69
2022/07/16 05:59:58;;;;;;;8.33;3.30;;;19.10;68.60;;;;;;5112929;28;20439;-66
2022/07/16 06:02:25;;;;;;;5.60;3.63;;;19.20;67.20;;;;;;5112906;28;20462;-66
2022/07/16 06:04:53;;;;;;;9.60;4.30;;;19.40;66.40;;;;;;5112475;28;20798;-66
2022/07/16 06:07:20;;;;;;;5.67;4.60;;;19.50;65.80;;;;;;5112908;28;20445;-66
2022/07/16 06:09:48;;;;;;;4.50;3.90;;;19.60;66.80;;;;;;5112840;28;20486;-66
2022/07/16 06:12:15;;;;;;;6.83;3.43;;;19.70;66.30;;;;;;5113022;28;20511;-66
2022/07/16 06:14:44;;;;;;;6.63;4.30;;;19.70;65.60;;;;;;5112503;28;20441;-66
2022/07/16 06:17:13;;;;;;;4.93;4.07;;;19.90;65.50;;;;;;5112492;28;20542;-66
2022/07/16 06:19:42;;;;;;;5.63;4.40;;;19.90;64.10;;;;;;5112036;28;20434;-66
2022/07/16 06:22:09;;;;;;;7.43;5.10;;;19.90;63.80;;;;;;5112886;28;20487;-66
2022/07/16 06:24:37;;;;;;;6.37;4.80;;;19.90;64.10;;;;;;5112546;28;20442;-66
2022/07/16 06:27:05;;;;;;;5.67;4.27;;;19.90;64.90;;;;;;5112939;28;20447;-66
2022/07/16 06:29:32;;;;;;;5.53;3.73;;;19.90;64.10;;;;;;5112374;28;20482;-73
2022/07/16 06:32:01;;;;;;;5.90;4.10;;;20.00;64.10;;;;;;5112039;28;20432;-66
2022/07/16 06:34:28;;;;;;;8.00;4.27;;;20.00;63.20;;;;;;5112687;28;20434;-67
2022/07/16 06:36:55;;;;;;;7.00;4.93;;;20.10;63.40;;;;;;5112644;28;20488;-66
2022/07/16 06:39:22;;;;;;;5.57;4.00;;;20.10;63.80;;;;;;5112863;28;20853;-66
2022/07/16 06:41:50;;;;;;;5.07;4.43;;;20.20;63.90;;;;;;5112311;28;20439;-66
2022/07/16 06:44:17;;;;;;;6.43;4.80;;;20.20;63.10;;;;;;5112864;28;20438;-66
2022/07/16 06:46:44;;;;;;;6.40;4.40;;;20.30;62.50;;;;;;5111980;28;20434;-66
2022/07/16 06:49:14;;;;;;;5.00;4.43;;;20.40;63.50;;;;;;5112168;28;20477;-66
2022/07/16 06:51:41;;;;;;;4.93;3.50;;;20.50;64.30;;;;;;5112555;28;20438;-66
2022/07/16 06:54:08;;;;;;;10.67;4.23;;;20.60;63.90;;;;;;5112231;28;20431;-66
2022/07/16 06:56:36;;;;;;;7.93;4.43;;;20.90;62.60;;;;;;5112541;28;20445;-66
2022/07/16 06:59:03;;;;;;;16.27;4.80;;;21.10;60.70;;;;;;5112412;28;20445;-66
2022/07/16 07:01:30;;;;;;;7.57;3.90;;;21.30;61.30;;;;;;5112516;28;20971;-66
2022/07/16 07:03:58;;;;;;;6.47;3.90;;;21.40;60.90;;;;;;5112407;28;20461;-67
2022/07/16 07:06:27;;;;;;;6.20;3.40;;;21.50;61.00;;;;;;5112739;28;20442;-67
2022/07/16 07:08:54;;;;;;;9.53;3.50;;;21.70;60.60;;;;;;5112322;28;20434;-66
2022/07/16 07:11:21;;;;;;;5.10;4.23;;;21.80;58.40;;;;;;5112048;28;20788;-66
2022/07/16 07:13:49;;;;;;;4.63;3.30;;;21.90;59.10;;;;;;5111986;28;20434;-66
2022/07/16 07:16:17;;;;;;;4.50;2.90;;;22.00;59.50;;;;;;5112702;28;20450;-66
2022/07/16 07:18:44;;;;;;;5.60;3.73;;;22.30;59.00;;;;;;5112135;28;20443;-66
2022/07/16 07:21:12;;;;;;;5.67;4.00;;;22.40;57.50;;;;;;5112003;28;20442;-66
2022/07/16 07:23:40;;;;;;;6.20;4.00;;;22.50;57.10;;;;;;5112099;28;20447;-66
2022/07/16 07:26:08;;;;;;;10.13;3.70;;;22.60;57.50;;;;;;5112295;28;20439;-66
2022/07/16 07:28:35;;;;;;;7.70;3.70;;;22.70;57.90;;;;;;5111935;28;20446;-66
2022/07/16 07:31:02;;;;;;;6.07;4.33;;;22.90;55.40;;;;;;5112899;28;20479;-67
2022/07/16 07:33:29;;;;;;;4.97;3.43;;;23.10;55.60;;;;;;5115567;28;20466;-67
2022/07/16 07:35:57;;;;;;;4.40;3.40;;;23.40;54.70;;;;;;5116366;28;20931;-66
2022/07/16 07:38:24;;;;;;;7.47;3.30;;;23.60;54.40;;;;;;5115814;28;20432;-66
2022/07/16 07:40:53;;;;;;;6.80;3.17;;;23.90;53.50;;;;;;5116051;28;20445;-66
2022/07/16 07:43:21;;;;;;;6.67;4.03;;;24.30;54.50;;;;;;5115719;28;20440;-66
2022/07/16 07:45:48;;;;;;;5.70;3.50;;;24.70;51.90;;;;;;5115481;28;20918;-66
2022/07/16 07:48:15;;;;;;;8.73;3.23;;;24.90;51.00;;;;;;5115937;28;20528;-66
2022/07/16 07:50:43;;;;;;;7.00;3.10;;;25.10;50.90;;;;;;5114859;28;20489;-67
2022/07/16 07:53:10;;;;;;;4.90;3.27;;;25.30;50.00;;;;;;5115800;28;20434;-66
2022/07/16 07:55:38;;;;;;;6.70;3.03;;;25.50;49.40;;;;;;5114991;28;20858;-66
2022/07/16 07:58:07;;;;;;;5.20;4.00;;;25.80;48.40;;;;;;5115472;28;20441;-71
2022/07/16 08:00:34;;;;;;;5.07;3.73;;;25.90;47.40;;;;;;5115230;28;20466;-66
2022/07/16 08:03:01;;;;;;;8.30;3.33;;;26.10;47.40;;;;;;5115434;28;21035;-67
2022/07/16 08:05:29;;;;;;;4.53;2.80;;;26.30;47.70;;;;;;5115333;28;20445;-66
2022/07/16 08:07:56;;;;;;;7.73;3.17;;;26.60;47.30;;;;;;5115607;28;20434;-74
2022/07/16 08:10:24;;;;;;;5.00;2.87;;;26.80;44.90;;;;;;5114875;28;20553;-68
2022/07/16 08:12:51;;;;;;;7.13;2.97;;;27.00;44.30;;;;;;5115516;28;20530;-66
2022/07/16 08:15:20;;;;;;;4.40;2.30;;;27.10;44.30;;;;;;5115063;28;20438;-66
2022/07/16 08:17:47;;;;;;;4.63;2.30;;;27.20;42.60;;;;;;5115257;28;20426;-66
2022/07/16 08:20:14;;;;;;;3.97;2.20;;;27.20;42.70;;;;;;5115093;28;20438;-66
2022/07/16 08:22:42;;;;;;;3.97;2.03;;;27.20;40.20;;;;;;5113934;28;20473;-66
2022/07/16 08:27:57;;;;;;;5.57;2.60;;;27.20;41.30;;;;;;5078616;28;20419;-66
2022/07/16 08:30:25;;;;;;;5.53;2.30;;;27.40;41.60;;;;;;5110633;27;20987;-66
2022/07/16 08:32:53;;;;;;;6.03;2.60;;;27.40;39.10;;;;;;5113409;28;20430;-67
2022/07/16 08:35:20;;;;;;;6.27;2.53;;;27.50;40.40;;;;;;5113123;28;20963;-67
2022/07/16 08:37:48;;;;;;;4.43;2.37;;;27.50;38.80;;;;;;5113600;28;20538;-66
2022/07/16 08:40:17;;;;;;;5.60;2.30;;;27.30;38.30;;;;;;5113529;28;20474;-67
2022/07/16 08:42:44;;;;;;;3.77;2.30;;;27.30;40.10;;;;;;5113179;28;20444;-66
2022/07/16 08:45:13;;;;;;;3.83;2.03;;;27.10;39.50;;;;;;5112349;28;20958;-66
2022/07/16 08:47:41;;;;;;;5.83;1.80;;;27.10;40.20;;;;;;5113913;28;20430;-67
2022/07/16 08:50:11;;;;;;;3.37;2.07;;;27.00;39.90;;;;;;5112981;28;21059;-70
2022/07/16 08:52:39;;;;;;;3.40;2.23;;;27.10;40.10;;;;;;5113061;28;20514;-67
2022/07/16 08:55:08;;;;;;;3.20;2.50;;;27.10;38.30;;;;;;5112781;28;20979;-73
2022/07/16 08:57:37;;;;;;;3.33;2.47;;;27.10;38.60;;;;;;5112000;28;20521;-66
2022/07/16 09:00:07;;;;;;;3.30;2.60;;;27.10;39.40;;;;;;5112822;28;20438;-66
2022/07/16 09:02:34;;;;;;;4.10;2.33;;;27.10;39.10;;;;;;5107565;28;20466;-67
2022/07/16 09:05:03;;;;;;;5.60;2.73;;;27.10;39.30;;;;;;5113064;28;20499;-66
2022/07/16 09:07:30;;;;;;;5.13;2.80;;;27.10;38.60;;;;;;5112868;28;20477;-66
2022/07/16 09:09:58;;;;;;;6.00;2.43;;;27.10;40.30;;;;;;5111913;28;20470;-67
2022/07/16 09:12:39;;;;;;;3.53;2.50;;;27.20;40.00;;;;;;5112703;28;20434;-67
2022/07/16 09:15:31;;;;;;;5.67;3.03;;;27.20;39.00;;;;;;5112081;28;20531;-67
2022/07/16 09:18:17;;;;;;;4.87;3.03;;;27.20;38.70;;;;;;5110994;28;20461;-67
2022/07/16 09:20:48;;;;;;;5.93;2.90;;;27.20;38.80;;;;;;5111792;28;20438;-66
2022/07/16 09:23:25;;;;;;;4.43;2.47;;;27.30;39.50;;;;;;5112288;28;20442;-72
2022/07/16 09:25:54;;;;;;;6.90;2.93;;;27.30;38.30;;;;;;5112126;28;20442;-66
2022/07/16 09:28:23;;;;;;;5.03;2.47;;;27.40;38.40;;;;;;5112580;28;20430;-67
2022/07/16 09:30:50;;;;;;;9.37;2.87;;;27.40;38.10;;;;;;5109845;28;20473;-66
2022/07/16 09:33:20;;;;;;;6.20;2.90;;;27.30;38.40;;;;;;5111390;28;20446;-66
2022/07/16 09:36:04;;;;;;;4.47;2.47;;;27.30;38.60;;;;;;5111445;28;20529;-69
2022/07/16 09:38:44;;;;;;;6.43;2.40;;;27.40;38.30;;;;;;5111576;28;20529;-67
2022/07/16 09:41:13;;;;;;;6.63;2.40;;;27.40;38.50;;;;;;5106893;28;20442;-67
2022/07/16 09:43:43;;;;;;;3.97;2.93;;;27.50;39.60;;;;;;5102227;28;20896;-66
2022/07/16 09:46:17;;;;;;;7.70;2.80;;;27.50;39.20;;;;;;5110014;28;20483;-67
2022/07/16 09:48:45;;;;;;;4.40;3.07;;;27.60;38.60;;;;;;5110438;28;20444;-67
2022/07/16 09:51:18;;;;;;;3.33;2.60;;;27.60;38.90;;;;;;5110520;28;20481;-67
2022/07/16 09:53:46;;;;;;;4.30;3.03;;;27.80;39.20;;;;;;5110557;28;20466;-66
2022/07/16 09:56:16;;;;;;;6.37;3.00;;;27.90;39.50;;;;;;5112227;28;20431;-66
2022/07/16 09:58:48;;;;;;;5.30;2.50;;;28.00;38.90;;;;;;5112600;28;20445;-66
2022/07/16 10:01:16;;;;;;;4.40;3.00;;;28.00;38.40;;;;;;5112381;28;20452;-67
2022/07/16 10:03:43;;;;;;;6.70;3.23;;;28.00;37.00;;;;;;5112109;28;20454;-67
2022/07/16 10:06:10;;;;;;;4.37;2.70;;;28.00;37.60;;;;;;5112125;28;20489;-66
2022/07/16 10:08:40;;;;;;;4.30;2.53;;;28.10;38.20;;;;;;5111939;28;20921;-67
2022/07/16 10:11:07;;;;;;;5.13;3.23;;;28.10;38.30;;;;;;5111704;28;20478;-68
2022/07/16 10:13:37;;;;;;;4.30;3.10;;;28.30;37.70;;;;;;5111950;28;20863;-66
2022/07/16 10:16:04;;;;;;;5.47;2.83;;;28.40;38.60;;;;;;5112036;28;20449;-66
2022/07/16 10:18:37;;;;;;;7.00;3.00;;;28.40;36.30;;;;;;5111953;28;20473;-67
2022/07/16 10:21:07;;;;;;;5.83;2.47;;;28.40;35.90;;;;;;5112097;28;20948;-67
2022/07/16 10:23:35;;;;;;;6.83;3.13;;;28.40;36.60;;;;;;5111885;28;20434;-67
2022/07/16 10:26:06;;;;;;;5.53;2.70;;;28.40;38.70;;;;;;5111932;28;20815;-67
2022/07/16 10:28:43;;;;;;;4.43;2.87;;;28.50;39.20;;;;;;5107591;28;20434;-70
2022/07/16 10:31:36;;;;;;;5.07;3.20;;;28.50;37.30;;;;;;5108674;28;20564;-66
2022/07/16 10:34:37;;;;;;;5.07;2.47;;;28.50;36.30;;;;;;5111164;28;20453;-67
2022/07/16 10:37:07;;;;;;;5.10;3.17;;;28.20;36.80;;;;;;5111064;28;20524;-67
2022/07/16 10:39:50;;;;;;;5.63;2.87;;;28.20;37.20;;;;;;5110614;28;20795;-67
2022/07/16 10:42:19;;;;;;;5.17;3.33;;;28.10;35.50;;;;;;5111278;28;20440;-67
2022/07/16 10:44:47;;;;;;;4.07;2.60;;;28.10;36.50;;;;;;5109889;28;20525;-69
2022/07/16 10:47:17;;;;;;;6.20;3.03;;;28.10;35.60;;;;;;5111387;28;20525;-68
2022/07/16 10:49:44;;;;;;;5.00;2.93;;;28.20;36.80;;;;;;5110462;28;20434;-68
2022/07/16 10:52:14;;;;;;;4.40;3.00;;;28.20;38.60;;;;;;5110045;28;20493;-67
2022/07/16 10:54:42;;;;;;;4.03;3.07;;;28.30;38.30;;;;;;5111153;28;20806;-67
2022/07/16 10:57:10;;;;;;;4.90;3.23;;;28.20;35.80;;;;;;5111014;28;20434;-66
2022/07/16 10:59:41;;;;;;;8.97;2.93;;;28.20;35.60;;;;;;5111131;28;20426;-68
2022/07/16 11:02:10;;;;;;;5.10;2.80;;;28.20;37.30;;;;;;5106267;28;20449;-66
2022/07/16 11:04:39;;;;;;;4.30;2.87;;;28.20;36.80;;;;;;5110856;28;20939;-66
2022/07/16 11:07:09;;;;;;;6.50;2.90;;;28.20;37.40;;;;;;5114125;28;20980;-70
2022/07/16 11:09:38;;;;;;;5.90;3.10;;;28.30;40.20;;;;;;5111362;28;20445;-67
2022/07/16 11:12:14;;;;;;;3.90;2.47;;;28.50;39.40;;;;;;5114539;28;20470;-67
2022/07/16 11:14:45;;;;;;;3.40;2.47;;;28.60;38.20;;;;;;5114608;28;20460;-67
2022/07/16 11:17:13;;;;;;;4.17;2.93;;;28.60;34.40;;;;;;5114540;28;20990;-66
2022/07/16 11:19:42;;;;;;;5.43;3.50;;;28.50;35.70;;;;;;5114833;28;20438;-67
2022/07/16 11:22:10;;;;;;;5.13;2.97;;;28.30;35.80;;;;;;5114225;28;20985;-67
2022/07/16 11:24:45;;;;;;;4.80;2.93;;;28.20;35.70;;;;;;5115052;28;20465;-67
2022/07/16 11:27:12;;;;;;;6.00;3.10;;;28.30;37.10;;;;;;5114327;28;20478;-67
2022/07/16 11:29:39;;;;;;;5.33;2.73;;;28.30;37.10;;;;;;5114626;28;20442;-66
2022/07/16 11:32:17;;;;;;;7.10;3.30;;;28.40;38.40;;;;;;5114545;28;20478;-66
2022/07/16 11:34:44;;;;;;;4.80;2.67;;;28.40;37.90;;;;;;5114517;28;20437;-68
2022/07/16 11:37:12;;;;;;;5.50;2.87;;;28.50;37.70;;;;;;5110221;28;20475;-66
2022/07/16 11:39:39;;;;;;;4.90;2.80;;;28.60;38.20;;;;;;5114184;28;20985;-66
2022/07/16 11:42:06;;;;;;;4.10;3.20;;;28.70;39.20;;;;;;5111141;28;20438;-67
2022/07/16 11:44:35;;;;;;;6.07;3.03;;;28.80;37.10;;;;;;5113925;28;20529;-67
2022/07/16 11:47:04;;;;;;;5.67;3.70;;;28.90;35.70;;;;;;5111237;28;20491;-67
2022/07/16 11:49:34;;;;;;;4.10;3.23;;;29.00;35.90;;;;;;5112884;28;20449;-66
2022/07/16 11:52:03;;;;;;;3.50;2.70;;;28.90;33.70;;;;;;5111418;28;21028;-68
2022/07/16 11:54:31;;;;;;;3.73;3.10;;;28.80;35.10;;;;;;5112661;28;20536;-67
2022/07/16 11:56:58;;;;;;;3.90;3.30;;;28.70;36.10;;;;;;5112620;28;20526;-67
2022/07/16 11:59:26;;;;;;;4.73;2.90;;;28.80;36.20;;;;;;5112765;28;20462;-66
2022/07/16 12:02:04;;;;;;;6.77;3.00;;;28.80;34.30;;;;;;5111523;28;20525;-69
2022/07/16 12:04:38;;;;;;;3.37;2.47;;;28.80;36.20;;;;;;5110978;28;20441;-67
2022/07/16 12:07:08;;;;;;;4.00;2.80;;;28.90;37.50;;;;;;5112428;28;20433;-68
2022/07/16 12:09:38;;;;;;;6.13;3.17;;;29.00;36.80;;;;;;5109536;28;20442;-67
2022/07/16 12:12:08;;;;;;;5.93;3.00;;;29.00;37.20;;;;;;5112594;28;20481;-66
2022/07/16 12:14:50;;;;;;;4.17;2.80;;;29.10;38.10;;;;;;5112524;28;20438;-67
2022/07/16 12:17:31;;;;;;;4.33;3.20;;;29.20;37.10;;;;;;5110027;28;20446;-66
2022/07/16 12:20:13;;;;;;;5.20;2.90;;;29.30;37.10;;;;;;5112493;28;20438;-67
2022/07/16 12:22:45;;;;;;;5.87;2.40;;;29.30;33.80;;;;;;5112504;28;20756;-67
2022/07/16 12:25:25;;;;;;;7.33;3.37;;;29.10;34.20;;;;;;5112219;28;20449;-67
2022/07/16 12:27:53;;;;;;;4.83;3.50;;;29.00;35.10;;;;;;5111671;28;20477;-69
2022/07/16 12:30:30;;;;;;;5.37;2.70;;;29.00;35.60;;;;;;5110914;28;20471;-67
2022/07/16 12:32:59;;;;;;;6.40;3.10;;;29.00;37.40;;;;;;5112685;28;20433;-70
2022/07/16 12:35:45;;;;;;;4.80;3.30;;;29.10;37.30;;;;;;5111765;28;20521;-67
2022/07/16 12:38:47;;;;;;;5.50;2.70;;;29.20;35.40;;;;;;5111294;28;20483;-68
2022/07/16 12:41:18;;;;;;;5.90;2.60;;;29.30;36.70;;;;;;5110413;28;20453;-67
2022/07/16 12:43:49;;;;;;;4.70;2.70;;;29.40;36.10;;;;;;5112150;28;20944;-67
2022/07/16 12:46:17;;;;;;;4.37;3.47;;;29.30;36.00;;;;;;5111592;28;20438;-67
2022/07/16 12:48:47;;;;;;;7.13;3.20;;;29.30;36.20;;;;;;5111812;28;20434;-67
2022/07/16 12:51:18;;;;;;;4.90;3.93;;;29.30;36.20;;;;;;5111782;28;20494;-66
2022/07/16 12:53:46;;;;;;;4.57;2.83;;;29.40;36.30;;;;;;5112032;28;20442;-67
2022/07/16 12:58:58;;;;;;;8.27;5.60;;;29.40;35.10;;;;;;5111314;28;20437;-67
2022/07/16 13:01:27;;;;;;;6.70;3.67;;;29.40;34.70;;;;;;5111838;28;20525;-66
2022/07/16 13:03:58;;;;;;;5.00;3.13;;;29.40;34.30;;;;;;5111512;28;20462;-66